Time;durP1;ratioP1;P1;durP2;ratioP2;P2;SDS_P1;SDS_P2;PMS_P1;PMS_P2;Temp;Humidity;BMP_temperature;BMP_pressure;BME280_temperature;BME280_humidity;BME280_pressure;Samples;Min_cycle;Max_cycle;Signal;HPM_P1;HPM_P2
2023/12/26 00:00:40;;;;;;;1.08;0.82;;;5.50;91.80;;;;;;2038967;28;20228;-65
2023/12/26 00:01:48;;;;;;;1.80;0.90;;;5.60;91.70;;;;;;2037761;29;20235;-65
2023/12/26 00:02:48;;;;;;;2.67;1.02;;;5.60;91.60;;;;;;2035709;29;20231;-65
2023/12/26 00:03:49;;;;;;;1.87;1.00;;;5.50;91.70;;;;;;2038887;28;20262;-65
2023/12/26 00:04:51;;;;;;;2.50;1.00;;;5.50;91.80;;;;;;2037780;29;20243;-65
2023/12/26 00:05:52;;;;;;;3.53;1.03;;;5.50;91.50;;;;;;2038170;28;20220;-65
2023/12/26 00:06:52;;;;;;;1.60;0.70;;;5.50;91.70;;;;;;2038420;28;20216;-65
2023/12/26 00:07:53;;;;;;;2.23;0.90;;;5.50;91.90;;;;;;2038228;28;20228;-65
2023/12/26 00:08:54;;;;;;;1.80;1.10;;;5.50;92.10;;;;;;2036421;28;20233;-66
2023/12/26 00:09:54;;;;;;;1.17;0.83;;;5.50;92.30;;;;;;2038660;28;20228;-65
2023/12/26 00:10:55;;;;;;;0.80;0.80;;;5.40;92.40;;;;;;2037573;29;20576;-66
2023/12/26 00:11:56;;;;;;;1.20;0.77;;;5.50;92.50;;;;;;2036990;29;20227;-66
2023/12/26 00:12:56;;;;;;;2.40;1.00;;;5.50;92.70;;;;;;2036560;28;20332;-66
2023/12/26 00:13:57;;;;;;;4.13;1.00;;;5.50;92.90;;;;;;2038502;28;20242;-66
2023/12/26 00:14:58;;;;;;;2.20;1.00;;;5.40;93.00;;;;;;2038103;29;20362;-65
2023/12/26 00:15:58;;;;;;;1.37;1.00;;;5.40;93.20;;;;;;2037964;29;20216;-65
2023/12/26 00:16:59;;;;;;;1.57;0.80;;;5.40;93.30;;;;;;2038933;28;20228;-65
2023/12/26 00:18:00;;;;;;;0.93;0.80;;;5.40;93.40;;;;;;2037391;29;20242;-64
2023/12/26 00:19:00;;;;;;;1.20;1.10;;;5.40;93.40;;;;;;2037285;29;20236;-64
2023/12/26 00:20:04;;;;;;;1.10;0.80;;;5.50;93.30;;;;;;2038564;28;20188;-65
2023/12/26 00:21:05;;;;;;;1.98;0.80;;;5.50;93.30;;;;;;2038049;29;20188;-65
2023/12/26 00:22:06;;;;;;;1.93;1.00;;;5.40;93.40;;;;;;2037407;29;20177;-65
2023/12/26 00:23:07;;;;;;;1.75;0.90;;;5.40;93.70;;;;;;2038384;28;20183;-65
2023/12/26 00:24:08;;;;;;;2.43;1.00;;;5.40;93.80;;;;;;2038096;29;20277;-66
2023/12/26 00:25:08;;;;;;;2.90;1.30;;;5.30;94.00;;;;;;2038781;28;20664;-66
2023/12/26 00:26:09;;;;;;;1.13;1.00;;;5.40;94.30;;;;;;2038432;29;20204;-64
2023/12/26 00:27:10;;;;;;;1.77;0.93;;;5.40;94.30;;;;;;2037793;29;20195;-65
2023/12/26 00:28:13;;;;;;;1.67;1.20;;;5.30;94.30;;;;;;2030180;29;20618;-65
2023/12/26 00:29:14;;;;;;;2.53;0.80;;;5.30;94.70;;;;;;2038040;29;20265;-65
2023/12/26 00:30:15;;;;;;;1.43;0.80;;;5.30;94.90;;;;;;2037859;29;20245;-65
2023/12/26 00:31:16;;;;;;;0.98;0.88;;;5.30;94.90;;;;;;2037134;29;20176;-64
2023/12/26 00:32:17;;;;;;;2.17;1.00;;;5.30;94.90;;;;;;2036678;28;20180;-65
2023/12/26 00:33:17;;;;;;;3.60;1.00;;;5.30;95.30;;;;;;2036743;29;20267;-65
2023/12/26 00:34:18;;;;;;;2.70;1.40;;;5.30;94.90;;;;;;2037965;29;20188;-66
2023/12/26 00:35:19;;;;;;;2.50;1.27;;;5.30;94.80;;;;;;2038454;28;20233;-64
2023/12/26 00:36:19;;;;;;;2.20;1.33;;;5.30;95.10;;;;;;2037922;28;20196;-63
2023/12/26 00:37:21;;;;;;;3.07;1.27;;;5.30;95.20;;;;;;2038444;28;20243;-63
2023/12/26 00:38:22;;;;;;;2.50;1.13;;;5.30;95.20;;;;;;2038571;28;20238;-64
2023/12/26 00:39:22;;;;;;;1.37;0.90;;;5.20;95.30;;;;;;2037947;29;20847;-64
2023/12/26 00:40:23;;;;;;;0.90;0.90;;;5.20;95.30;;;;;;2037336;29;20299;-64
2023/12/26 00:41:24;;;;;;;1.17;0.80;;;5.10;95.40;;;;;;2037419;29;20225;-64
2023/12/26 00:42:25;;;;;;;1.58;0.90;;;5.20;95.50;;;;;;2029898;29;20280;-64
2023/12/26 00:43:25;;;;;;;2.87;0.90;;;5.20;95.60;;;;;;2029980;29;20249;-64
2023/12/26 00:44:27;;;;;;;2.60;1.10;;;5.20;95.60;;;;;;2037566;29;20238;-64
2023/12/26 00:45:28;;;;;;;1.55;0.90;;;5.20;95.70;;;;;;2038052;28;20331;-63
2023/12/26 00:46:29;;;;;;;1.13;0.80;;;5.20;95.80;;;;;;2035404;29;20244;-63
2023/12/26 00:47:29;;;;;;;2.63;1.10;;;5.20;95.90;;;;;;2037344;29;20239;-64
2023/12/26 00:48:30;;;;;;;3.90;1.17;;;5.20;96.10;;;;;;2034712;29;20264;-65
2023/12/26 00:49:31;;;;;;;2.63;1.20;;;5.20;96.00;;;;;;2037770;29;20293;-64
2023/12/26 00:50:32;;;;;;;1.80;1.30;;;5.20;96.10;;;;;;2037973;28;20227;-65
2023/12/26 00:51:32;;;;;;;2.73;0.90;;;5.20;96.10;;;;;;2037677;29;20788;-65
2023/12/26 00:52:33;;;;;;;1.07;0.97;;;5.10;96.30;;;;;;2037582;29;20227;-64
2023/12/26 00:53:34;;;;;;;2.23;1.27;;;5.10;96.40;;;;;;2037569;29;20235;-64
2023/12/26 00:54:36;;;;;;;2.83;1.13;;;5.10;96.40;;;;;;2037960;29;20701;-64
2023/12/26 00:55:36;;;;;;;1.00;0.90;;;5.10;96.40;;;;;;2037535;28;20330;-64
2023/12/26 00:56:37;;;;;;;3.90;0.90;;;5.10;96.30;;;;;;2037156;28;20295;-64
2023/12/26 00:57:38;;;;;;;1.13;0.87;;;5.20;96.50;;;;;;2038079;28;20236;-63
2023/12/26 00:58:39;;;;;;;1.97;1.20;;;5.20;96.30;;;;;;2037854;29;20971;-64
2023/12/26 00:59:39;;;;;;;1.33;0.87;;;5.10;96.40;;;;;;2037575;29;20231;-64
2023/12/26 01:00:40;;;;;;;2.00;1.10;;;5.10;96.60;;;;;;2037969;28;20228;-64
2023/12/26 01:01:41;;;;;;;1.80;0.90;;;5.10;96.60;;;;;;2037815;29;20242;-64
2023/12/26 01:02:41;;;;;;;1.63;1.40;;;5.00;96.80;;;;;;2037504;29;20385;-64
2023/12/26 01:03:42;;;;;;;2.00;1.00;;;5.00;96.80;;;;;;2037928;29;20224;-64
2023/12/26 01:04:43;;;;;;;3.37;1.83;;;5.10;97.10;;;;;;2038150;29;20240;-64
2023/12/26 01:05:43;;;;;;;2.77;1.10;;;5.00;97.10;;;;;;2038120;29;20796;-64
2023/12/26 01:06:44;;;;;;;3.50;1.10;;;5.00;97.20;;;;;;2037393;29;20284;-64
2023/12/26 01:07:45;;;;;;;1.30;0.90;;;5.00;97.40;;;;;;2038355;28;20220;-64
2023/12/26 01:08:45;;;;;;;1.70;1.13;;;5.00;97.40;;;;;;2038700;28;20228;-63
2023/12/26 01:09:46;;;;;;;1.70;1.03;;;5.00;97.20;;;;;;2038377;28;20282;-64
2023/12/26 01:10:47;;;;;;;1.77;1.40;;;5.00;96.90;;;;;;2037604;28;20227;-65
2023/12/26 01:11:48;;;;;;;1.77;0.98;;;5.00;96.90;;;;;;2036910;29;20318;-67
2023/12/26 01:12:48;;;;;;;3.70;1.10;;;5.00;96.70;;;;;;2035385;29;20319;-66
2023/12/26 01:13:49;;;;;;;1.00;0.90;;;5.10;96.80;;;;;;2035775;28;20238;-67
2023/12/26 01:14:50;;;;;;;3.10;0.97;;;5.00;96.90;;;;;;2035642;29;20258;-66
2023/12/26 01:15:50;;;;;;;1.27;0.93;;;5.00;97.00;;;;;;2037838;28;20227;-65
2023/12/26 01:16:51;;;;;;;2.60;1.27;;;5.10;96.90;;;;;;2036951;28;20222;-66
2023/12/26 01:17:52;;;;;;;1.10;0.83;;;5.10;96.60;;;;;;2035641;29;20586;-66
2023/12/26 01:18:53;;;;;;;1.23;0.97;;;5.10;96.60;;;;;;2035567;29;20245;-66
2023/12/26 01:19:53;;;;;;;2.78;1.00;;;5.10;96.50;;;;;;2035016;29;20230;-65
2023/12/26 01:20:54;;;;;;;2.13;1.00;;;5.00;96.50;;;;;;2037836;29;20251;-66
2023/12/26 01:21:55;;;;;;;1.67;1.10;;;5.10;96.40;;;;;;2038639;29;20235;-66
2023/12/26 01:22:56;;;;;;;1.90;1.10;;;5.10;96.50;;;;;;2036210;29;20645;-65
2023/12/26 01:23:57;;;;;;;0.90;0.90;;;5.10;96.40;;;;;;2035443;29;20225;-66
2023/12/26 01:24:58;;;;;;;3.55;1.77;;;5.10;96.20;;;;;;2035342;29;20229;-66
2023/12/26 01:25:59;;;;;;;0.80;0.73;;;5.10;96.20;;;;;;2037602;29;20239;-66
2023/12/26 01:26:59;;;;;;;4.20;1.23;;;5.10;96.30;;;;;;2038545;29;20776;-65
2023/12/26 01:28:00;;;;;;;1.87;1.03;;;5.00;96.30;;;;;;2035968;29;20315;-65
2023/12/26 01:29:01;;;;;;;1.07;0.90;;;5.10;96.40;;;;;;2034000;29;20247;-65
2023/12/26 01:30:02;;;;;;;1.43;0.70;;;5.10;96.40;;;;;;2036166;28;20186;-65
2023/12/26 01:31:03;;;;;;;2.03;0.90;;;5.00;96.40;;;;;;2038122;28;20192;-66
2023/12/26 01:32:05;;;;;;;2.03;1.10;;;5.00;96.40;;;;;;2029200;29;20690;-66
2023/12/26 01:33:06;;;;;;;2.13;1.05;;;5.10;96.60;;;;;;2027341;29;20914;-66
2023/12/26 01:34:07;;;;;;;1.23;0.95;;;5.00;96.70;;;;;;2034713;29;20204;-66
2023/12/26 01:35:08;;;;;;;1.40;0.90;;;5.10;96.70;;;;;;2036575;29;20199;-66
2023/12/26 01:36:09;;;;;;;1.83;0.90;;;5.10;96.70;;;;;;2045691;28;20196;-66
2023/12/26 01:37:09;;;;;;;1.70;0.87;;;5.10;96.60;;;;;;2038165;29;20244;-66
2023/12/26 01:38:10;;;;;;;1.93;1.00;;;5.10;96.40;;;;;;2038296;29;20216;-65
2023/12/26 01:39:12;;;;;;;1.10;0.90;;;5.20;96.30;;;;;;2034369;29;20271;-66
2023/12/26 01:40:13;;;;;;;2.17;0.80;;;5.20;96.00;;;;;;2038377;29;20203;-66
2023/12/26 01:41:14;;;;;;;1.27;0.90;;;5.10;96.00;;;;;;2037603;28;20633;-66
2023/12/26 01:42:15;;;;;;;1.97;0.90;;;5.10;96.10;;;;;;2036342;29;20189;-66
2023/12/26 01:43:17;;;;;;;4.00;0.85;;;5.20;96.00;;;;;;2035441;29;20297;-66
2023/12/26 01:44:17;;;;;;;1.45;0.90;;;5.20;95.70;;;;;;2034416;29;20647;-66
2023/12/26 01:45:18;;;;;;;3.13;1.20;;;5.20;95.60;;;;;;2038146;28;20203;-65
2023/12/26 01:46:20;;;;;;;1.60;0.90;;;5.20;95.80;;;;;;2036934;29;20239;-66
2023/12/26 01:47:22;;;;;;;1.85;0.80;;;5.10;96.10;;;;;;2036174;29;20247;-66
2023/12/26 01:48:22;;;;;;;1.15;1.05;;;5.10;96.30;;;;;;2037745;29;20232;-66
2023/12/26 01:49:24;;;;;;;1.80;1.17;;;5.00;96.30;;;;;;2034530;29;20267;-65
2023/12/26 01:50:26;;;;;;;1.70;0.98;;;5.10;96.10;;;;;;2022627;29;20238;-64
2023/12/26 01:51:29;;;;;;;2.00;1.10;;;5.10;96.00;;;;;;2029156;29;20622;-66
2023/12/26 01:52:30;;;;;;;2.55;1.00;;;5.10;96.00;;;;;;2037489;29;20266;-65
2023/12/26 01:53:31;;;;;;;1.97;0.93;;;5.10;96.20;;;;;;2028586;29;20230;-65
2023/12/26 01:54:35;;;;;;;2.28;1.20;;;5.00;96.40;;;;;;2032131;29;20268;-66
2023/12/26 01:55:36;;;;;;;1.65;0.90;;;5.00;96.60;;;;;;2035385;29;20229;-66
2023/12/26 01:56:37;;;;;;;1.27;0.80;;;5.10;96.80;;;;;;2037969;29;20229;-66
2023/12/26 01:57:39;;;;;;;1.75;0.80;;;5.00;96.70;;;;;;2036244;29;20733;-65
2023/12/26 01:58:40;;;;;;;2.28;0.90;;;5.00;96.80;;;;;;2036714;29;20527;-66
2023/12/26 01:59:42;;;;;;;1.38;1.00;;;5.00;96.90;;;;;;2028366;29;20229;-66
2023/12/26 02:00:43;;;;;;;4.15;0.98;;;5.00;97.00;;;;;;2030578;29;20305;-65
2023/12/26 02:01:44;;;;;;;3.67;1.27;;;5.00;97.00;;;;;;2041196;29;20293;-66
2023/12/26 02:02:45;;;;;;;2.13;0.90;;;5.00;97.20;;;;;;2041133;29;20832;-66
2023/12/26 02:03:47;;;;;;;1.52;1.10;;;5.00;97.90;;;;;;2044954;29;20208;-66
2023/12/26 02:04:47;;;;;;;1.40;1.10;;;4.90;97.50;;;;;;2044119;29;20192;-66
2023/12/26 02:05:48;;;;;;;2.57;1.20;;;4.90;97.70;;;;;;2041071;29;20199;-65
2023/12/26 02:06:49;;;;;;;2.80;1.10;;;4.90;97.80;;;;;;2040083;29;20217;-66
2023/12/26 02:07:50;;;;;;;1.98;1.42;;;4.90;97.90;;;;;;2030044;29;20925;-65
2023/12/26 02:08:51;;;;;;;2.77;1.23;;;4.90;97.90;;;;;;2032249;29;20193;-64
2023/12/26 02:09:52;;;;;;;3.28;1.52;;;4.90;98.20;;;;;;2045989;29;20193;-66
2023/12/26 02:10:53;;;;;;;2.10;1.10;;;4.90;98.20;;;;;;2033985;29;20228;-66
2023/12/26 02:11:54;;;;;;;2.37;1.10;;;4.90;98.40;;;;;;2036668;29;20316;-66
2023/12/26 02:12:55;;;;;;;1.42;1.00;;;4.90;98.50;;;;;;2036820;29;20216;-66
2023/12/26 02:13:56;;;;;;;2.60;1.27;;;4.90;98.60;;;;;;2035346;29;20225;-66
2023/12/26 02:14:57;;;;;;;2.43;1.20;;;4.90;98.70;;;;;;2036093;29;20708;-65
2023/12/26 02:16:01;;;;;;;2.55;1.02;;;4.90;98.90;;;;;;2038451;29;20235;-66
2023/12/26 02:17:04;;;;;;;1.55;1.00;;;5.00;99.00;;;;;;2035828;29;20220;-66
2023/12/26 02:18:05;;;;;;;2.67;1.10;;;4.90;99.00;;;;;;2028837;29;20213;-66
2023/12/26 02:19:06;;;;;;;1.88;1.08;;;5.00;99.50;;;;;;2031351;29;20189;-65
2023/12/26 02:20:08;;;;;;;1.77;1.13;;;4.90;99.10;;;;;;2029895;29;20185;-65
2023/12/26 02:21:08;;;;;;;2.38;1.15;;;4.90;99.00;;;;;;2038256;29;20189;-65
2023/12/26 02:22:09;;;;;;;3.03;1.20;;;4.80;99.20;;;;;;2046839;28;20608;-65
2023/12/26 02:23:10;;;;;;;5.80;1.30;;;4.80;99.40;;;;;;2043690;28;20175;-66
2023/12/26 02:24:10;;;;;;;3.37;1.30;;;4.80;99.50;;;;;;2035405;29;20193;-65
2023/12/26 02:25:12;;;;;;;1.30;1.03;;;4.90;99.50;;;;;;2038283;29;20260;-66
2023/12/26 02:26:14;;;;;;;2.55;1.00;;;4.90;99.90;;;;;;2031430;29;20225;-65
2023/12/26 02:27:26;;;;;;;3.35;1.20;;;4.90;99.60;;;;;;2031358;29;20181;-65
2023/12/26 02:28:27;;;;;;;1.48;1.05;;;4.90;99.60;;;;;;2029135;29;20234;-66
2023/12/26 02:29:29;;;;;;;2.25;1.08;;;4.90;99.70;;;;;;2031285;29;20245;-66
2023/12/26 02:30:31;;;;;;;1.67;1.17;;;4.90;99.70;;;;;;2039542;29;20239;-66
2023/12/26 02:31:37;;;;;;;2.70;1.30;;;4.80;99.70;;;;;;2036705;29;20582;-66
2023/12/26 02:32:40;;;;;;;2.63;1.10;;;4.80;99.90;;;;;;2027733;29;20241;-65
2023/12/26 02:33:45;;;;;;;1.50;1.00;;;4.80;99.90;;;;;;2031908;29;20237;-65
2023/12/26 02:34:48;;;;;;;2.40;1.20;;;4.80;99.90;;;;;;2032290;29;20228;-66
2023/12/26 02:35:49;;;;;;;2.58;1.30;;;4.80;99.90;;;;;;2035479;29;20216;-66
2023/12/26 02:36:50;;;;;;;2.30;1.30;;;4.90;99.90;;;;;;2037049;29;20602;-65
2023/12/26 02:37:51;;;;;;;3.70;1.20;;;4.90;99.90;;;;;;2027973;29;20221;-65
2023/12/26 02:38:52;;;;;;;1.53;1.13;;;4.80;99.90;;;;;;2027986;29;20695;-66
2023/12/26 02:39:52;;;;;;;3.07;1.40;;;4.80;99.90;;;;;;2039233;29;21012;-66
2023/12/26 02:40:53;;;;;;;1.83;1.40;;;4.80;99.90;;;;;;2031608;29;20228;-66
2023/12/26 02:41:54;;;;;;;2.13;1.20;;;4.80;99.90;;;;;;2037358;29;20303;-66
2023/12/26 02:42:54;;;;;;;3.30;1.17;;;4.70;99.90;;;;;;2036715;29;20274;-66
2023/12/26 02:43:55;;;;;;;2.90;1.03;;;4.80;99.90;;;;;;2035571;29;20307;-66
2023/12/26 02:44:57;;;;;;;2.47;1.17;;;4.80;99.90;;;;;;2039173;28;20369;-66
2023/12/26 02:45:58;;;;;;;3.38;1.17;;;4.80;99.90;;;;;;2037953;29;20292;-67
2023/12/26 02:46:59;;;;;;;1.53;1.33;;;4.80;99.90;;;;;;2030983;29;20275;-65
2023/12/26 02:47:59;;;;;;;3.07;1.23;;;4.80;99.90;;;;;;2036270;29;20232;-67
2023/12/26 02:49:00;;;;;;;1.90;1.17;;;4.80;99.90;;;;;;2039903;28;20681;-66
2023/12/26 02:50:01;;;;;;;4.03;1.43;;;4.80;99.90;;;;;;2037344;29;20227;-66
2023/12/26 02:51:03;;;;;;;2.60;1.27;;;4.80;99.90;;;;;;2037787;29;20195;-66
2023/12/26 02:52:04;;;;;;;1.42;0.82;;;4.80;99.90;;;;;;2037304;29;20185;-66
2023/12/26 02:53:04;;;;;;;2.37;1.20;;;4.80;99.90;;;;;;2035573;29;20301;-66
2023/12/26 02:54:05;;;;;;;3.00;1.53;;;4.80;99.90;;;;;;2036833;29;20179;-66
2023/12/26 02:55:06;;;;;;;1.93;1.10;;;4.80;99.90;;;;;;2039012;28;20597;-66
2023/12/26 02:56:07;;;;;;;2.73;1.10;;;4.80;99.90;;;;;;2038232;28;20181;-66
2023/12/26 02:57:07;;;;;;;3.60;1.40;;;4.80;99.90;;;;;;2036329;29;20652;-66
2023/12/26 02:58:09;;;;;;;0.90;0.80;;;4.80;99.90;;;;;;2035616;29;20215;-66
2023/12/26 02:59:10;;;;;;;7.03;1.73;;;4.80;99.90;;;;;;2037826;28;20196;-66
2023/12/26 03:00:12;;;;;;;1.40;1.00;;;4.80;99.90;;;;;;2038913;28;20207;-66
2023/12/26 03:01:13;;;;;;;4.88;1.35;;;4.80;99.90;;;;;;2036916;29;20275;-66
2023/12/26 03:02:13;;;;;;;1.70;1.00;;;4.80;99.90;;;;;;2036283;29;20384;-66
2023/12/26 03:03:14;;;;;;;4.20;1.27;;;4.80;99.90;;;;;;2035307;29;20279;-66
2023/12/26 03:04:15;;;;;;;2.40;1.10;;;4.80;99.90;;;;;;2037776;29;20213;-66
2023/12/26 03:05:16;;;;;;;1.47;1.37;;;4.70;99.90;;;;;;2031479;29;20189;-66
2023/12/26 03:06:16;;;;;;;1.77;1.27;;;4.70;99.90;;;;;;2031163;29;20883;-66
2023/12/26 03:07:17;;;;;;;1.43;1.03;;;4.80;99.90;;;;;;2043895;28;20180;-65
2023/12/26 03:08:18;;;;;;;2.93;1.53;;;4.80;99.90;;;;;;2043050;28;20197;-67
2023/12/26 03:09:18;;;;;;;2.90;1.33;;;4.80;99.90;;;;;;2038922;28;20184;-67
2023/12/26 03:10:19;;;;;;;1.70;1.30;;;4.80;99.90;;;;;;2037234;29;20264;-66
2023/12/26 03:11:20;;;;;;;2.30;1.00;;;4.90;99.90;;;;;;2036876;29;20188;-66
2023/12/26 03:12:20;;;;;;;3.37;1.73;;;4.90;99.90;;;;;;2036946;28;20247;-67
2023/12/26 03:13:21;;;;;;;2.27;1.17;;;4.90;99.90;;;;;;2035507;29;20225;-65
2023/12/26 03:14:22;;;;;;;2.73;1.50;;;4.90;99.90;;;;;;2038780;29;20312;-66
2023/12/26 03:15:22;;;;;;;3.60;1.27;;;4.80;99.90;;;;;;2037994;28;20325;-67
2023/12/26 03:16:23;;;;;;;1.33;1.10;;;4.90;99.90;;;;;;2037736;28;20327;-65
2023/12/26 03:17:25;;;;;;;2.87;1.13;;;4.90;99.90;;;;;;2036164;28;20236;-66
2023/12/26 03:18:26;;;;;;;1.77;1.35;;;4.90;99.90;;;;;;2038403;29;20614;-65
2023/12/26 03:19:27;;;;;;;2.43;1.10;;;4.90;99.90;;;;;;2038774;29;20232;-66
2023/12/26 03:20:27;;;;;;;1.67;1.20;;;4.90;99.90;;;;;;2036029;28;20260;-65
2023/12/26 03:21:28;;;;;;;1.90;0.90;;;4.70;99.90;;;;;;2037627;28;20230;-67
2023/12/26 03:22:29;;;;;;;1.83;1.03;;;4.70;99.90;;;;;;2039214;29;20243;-66
2023/12/26 03:23:29;;;;;;;3.50;1.30;;;4.70;99.90;;;;;;2039033;29;20654;-66
2023/12/26 03:24:30;;;;;;;1.40;1.00;;;4.70;99.90;;;;;;2038227;29;20242;-66
2023/12/26 03:25:31;;;;;;;1.57;1.10;;;4.70;99.90;;;;;;2031560;29;20315;-66
2023/12/26 03:26:32;;;;;;;2.17;1.40;;;4.70;99.90;;;;;;2038709;29;20318;-65
2023/12/26 03:27:33;;;;;;;1.67;1.10;;;4.80;99.90;;;;;;2036127;28;20240;-66
2023/12/26 03:28:34;;;;;;;1.00;0.90;;;4.80;99.90;;;;;;2034990;29;20268;-66
2023/12/26 03:29:35;;;;;;;2.45;1.30;;;4.90;99.90;;;;;;2030028;29;20495;-67
2023/12/26 03:30:36;;;;;;;2.23;1.00;;;4.90;99.90;;;;;;2037364;29;20773;-66
2023/12/26 03:31:43;;;;;;;3.63;1.10;;;4.90;99.90;;;;;;2036881;28;20494;-66
2023/12/26 03:32:44;;;;;;;2.63;1.13;;;4.90;99.90;;;;;;2036027;29;20233;-66
2023/12/26 03:33:45;;;;;;;2.63;1.17;;;4.90;99.90;;;;;;2034937;29;20228;-67
2023/12/26 03:34:46;;;;;;;1.50;1.20;;;4.80;99.90;;;;;;2037775;29;20228;-65
2023/12/26 03:35:46;;;;;;;1.50;1.10;;;4.90;99.90;;;;;;2028852;29;20651;-66
2023/12/26 03:36:49;;;;;;;2.90;1.10;;;5.00;99.90;;;;;;2036682;29;20231;-66
2023/12/26 03:37:49;;;;;;;4.10;1.23;;;5.00;99.90;;;;;;2036115;28;20224;-67
2023/12/26 03:38:50;;;;;;;1.50;1.10;;;5.00;99.90;;;;;;2035628;29;20225;-65
2023/12/26 03:39:51;;;;;;;2.43;1.00;;;4.90;99.90;;;;;;2035445;29;20231;-66
2023/12/26 03:40:51;;;;;;;1.37;0.90;;;4.80;99.90;;;;;;2036695;29;20655;-66
2023/12/26 03:41:52;;;;;;;1.73;0.90;;;4.80;99.90;;;;;;2035353;29;20239;-65
2023/12/26 03:42:54;;;;;;;2.80;1.03;;;4.70;99.90;;;;;;2038756;29;20224;-67
2023/12/26 03:43:54;;;;;;;2.85;1.67;;;4.80;99.90;;;;;;2038673;29;20708;-66
2023/12/26 03:44:55;;;;;;;2.53;1.30;;;4.70;99.90;;;;;;2039068;29;20335;-66
2023/12/26 03:45:56;;;;;;;1.67;1.30;;;4.80;99.90;;;;;;2037356;28;20581;-65
2023/12/26 03:46:56;;;;;;;1.60;1.10;;;4.70;99.90;;;;;;2036798;29;20226;-66
2023/12/26 03:47:57;;;;;;;1.40;1.30;;;4.80;99.90;;;;;;2034757;29;20328;-66
2023/12/26 03:48:58;;;;;;;2.60;0.90;;;4.80;99.90;;;;;;2036431;29;20289;-66
2023/12/26 03:49:58;;;;;;;2.87;1.30;;;4.80;99.90;;;;;;2043020;29;20796;-67
2023/12/26 03:50:59;;;;;;;1.53;1.10;;;4.80;99.90;;;;;;2040037;29;20199;-66
2023/12/26 03:52:00;;;;;;;3.50;1.40;;;4.80;99.90;;;;;;2035484;28;20653;-66
2023/12/26 03:53:00;;;;;;;2.90;1.60;;;4.70;99.90;;;;;;2026110;29;20236;-67
2023/12/26 03:54:02;;;;;;;1.87;1.00;;;4.70;99.90;;;;;;2030528;29;20190;-67
2023/12/26 03:55:03;;;;;;;3.88;1.20;;;4.80;99.90;;;;;;2029379;29;20601;-66
2023/12/26 03:56:04;;;;;;;2.13;1.20;;;4.80;99.90;;;;;;2033372;29;20207;-66
2023/12/26 03:57:05;;;;;;;2.27;0.90;;;4.70;99.90;;;;;;2036548;29;20275;-66
2023/12/26 03:58:05;;;;;;;3.73;1.10;;;4.70;99.90;;;;;;2038679;29;20208;-66
2023/12/26 03:59:07;;;;;;;2.17;1.40;;;4.80;99.90;;;;;;2044234;28;20671;-66
2023/12/26 04:00:09;;;;;;;3.58;1.38;;;4.80;99.90;;;;;;2044702;28;20199;-66
2023/12/26 04:01:12;;;;;;;3.60;1.58;;;4.80;99.90;;;;;;2028039;29;20658;-66
2023/12/26 04:02:13;;;;;;;1.70;1.25;;;4.80;99.90;;;;;;2028051;29;20188;-66
2023/12/26 04:03:15;;;;;;;1.43;1.10;;;4.80;99.90;;;;;;2034785;29;20187;-66
2023/12/26 04:04:15;;;;;;;2.15;1.27;;;4.80;99.90;;;;;;2037722;29;20191;-66
2023/12/26 04:05:16;;;;;;;4.67;1.70;;;4.80;99.90;;;;;;2036358;29;20187;-65
2023/12/26 04:06:17;;;;;;;1.40;1.10;;;4.80;99.90;;;;;;2030775;29;20304;-66
2023/12/26 04:07:17;;;;;;;5.50;1.57;;;4.80;99.90;;;;;;2038651;29;20177;-66
2023/12/26 04:08:18;;;;;;;2.30;1.20;;;4.80;99.90;;;;;;2038597;29;20205;-66
2023/12/26 04:09:19;;;;;;;3.13;1.23;;;4.90;99.90;;;;;;2030621;29;20297;-66
2023/12/26 04:10:20;;;;;;;3.33;1.90;;;4.90;99.90;;;;;;2036774;29;20177;-66
2023/12/26 04:11:21;;;;;;;3.27;1.20;;;4.90;99.90;;;;;;2043631;28;20236;-66
2023/12/26 04:12:22;;;;;;;2.13;1.10;;;4.90;99.90;;;;;;2042744;28;20230;-67
2023/12/26 04:13:22;;;;;;;3.10;1.50;;;4.90;99.90;;;;;;2034583;29;20323;-66
2023/12/26 04:14:23;;;;;;;2.07;1.30;;;5.00;99.90;;;;;;2037646;29;20228;-66
2023/12/26 04:15:24;;;;;;;3.43;1.47;;;5.00;99.90;;;;;;2028444;29;20236;-66
2023/12/26 04:16:25;;;;;;;2.13;1.20;;;4.90;99.90;;;;;;2035807;29;20350;-66
2023/12/26 04:17:25;;;;;;;3.97;1.40;;;5.00;99.90;;;;;;2035794;29;20239;-66
2023/12/26 04:18:26;;;;;;;3.73;1.40;;;5.00;99.90;;;;;;2037779;29;20263;-66
2023/12/26 04:19:27;;;;;;;2.87;1.07;;;5.00;99.90;;;;;;2037212;29;20706;-66
2023/12/26 04:20:27;;;;;;;2.97;1.20;;;5.00;99.90;;;;;;2036843;28;20244;-65
2023/12/26 04:21:28;;;;;;;4.83;1.50;;;4.90;99.90;;;;;;2038729;29;20310;-65
2023/12/26 04:22:29;;;;;;;1.60;1.10;;;5.00;99.90;;;;;;2038656;29;20241;-66
2023/12/26 04:23:29;;;;;;;2.23;1.20;;;4.90;99.90;;;;;;2037874;29;20258;-67
2023/12/26 04:24:30;;;;;;;5.83;1.60;;;4.90;99.90;;;;;;2037563;28;20243;-66
2023/12/26 04:25:31;;;;;;;2.27;1.13;;;4.90;99.90;;;;;;2036984;28;20690;-66
2023/12/26 04:26:31;;;;;;;1.57;1.10;;;4.90;99.90;;;;;;2038724;29;20240;-66
2023/12/26 04:27:32;;;;;;;1.43;1.10;;;4.90;99.90;;;;;;2038383;29;20244;-66
2023/12/26 04:28:33;;;;;;;3.03;1.10;;;4.90;99.90;;;;;;2037594;29;20709;-66
2023/12/26 04:29:33;;;;;;;2.43;1.20;;;4.90;99.90;;;;;;2036297;29;20241;-67
2023/12/26 04:30:34;;;;;;;3.40;1.30;;;4.90;99.90;;;;;;2036810;28;20236;-66
2023/12/26 04:31:35;;;;;;;1.70;1.23;;;4.90;99.90;;;;;;2036351;28;20242;-66
2023/12/26 04:32:36;;;;;;;2.13;1.30;;;4.80;99.90;;;;;;2035517;29;20577;-66
2023/12/26 04:33:36;;;;;;;1.40;1.20;;;4.80;99.90;;;;;;2037994;29;20298;-66
2023/12/26 04:34:38;;;;;;;4.33;2.03;;;4.90;99.90;;;;;;2037263;29;20237;-66
2023/12/26 04:35:39;;;;;;;1.95;1.20;;;4.90;99.90;;;;;;2035690;29;20240;-66
2023/12/26 04:36:39;;;;;;;4.87;1.60;;;4.90;99.90;;;;;;2035769;29;20229;-67
2023/12/26 04:37:40;;;;;;;2.47;1.20;;;4.90;99.90;;;;;;2035414;29;20315;-66
2023/12/26 04:38:41;;;;;;;1.73;1.43;;;4.90;99.90;;;;;;2037526;29;20240;-66
2023/12/26 04:39:42;;;;;;;2.93;1.57;;;4.90;99.90;;;;;;2036695;29;20232;-66
2023/12/26 04:40:42;;;;;;;2.07;1.00;;;4.90;99.90;;;;;;2035021;29;20283;-67
2023/12/26 04:41:46;;;;;;;2.00;1.20;;;4.90;99.90;;;;;;2027342;29;20237;-66
2023/12/26 04:42:47;;;;;;;2.17;1.20;;;4.80;99.90;;;;;;2033381;29;20287;-66
2023/12/26 04:43:47;;;;;;;2.53;1.20;;;4.80;99.90;;;;;;2045735;28;20714;-66
2023/12/26 04:44:48;;;;;;;1.53;0.90;;;4.80;99.90;;;;;;2037394;28;20257;-66
2023/12/26 04:45:49;;;;;;;2.87;1.10;;;4.90;99.90;;;;;;2037153;28;20606;-66
2023/12/26 04:46:51;;;;;;;3.73;1.50;;;4.80;99.90;;;;;;2038477;28;20239;-66
2023/12/26 04:47:52;;;;;;;2.33;1.48;;;4.80;99.90;;;;;;2035538;29;20306;-66
2023/12/26 04:48:53;;;;;;;2.23;1.27;;;4.90;99.90;;;;;;2038455;29;20276;-66
2023/12/26 04:49:54;;;;;;;2.35;1.15;;;4.90;99.90;;;;;;2038460;29;20232;-66
2023/12/26 04:50:55;;;;;;;3.83;1.70;;;4.90;99.90;;;;;;2036832;28;20361;-66
2023/12/26 04:51:55;;;;;;;1.90;0.90;;;4.90;99.90;;;;;;2035463;29;20253;-67
2023/12/26 04:52:56;;;;;;;1.87;0.90;;;4.90;99.90;;;;;;2035122;29;20251;-66
2023/12/26 04:53:57;;;;;;;2.03;1.20;;;4.90;99.90;;;;;;2037833;29;20224;-66
2023/12/26 04:54:58;;;;;;;3.50;1.35;;;4.90;99.90;;;;;;2029010;29;20228;-66
2023/12/26 04:55:58;;;;;;;2.20;1.23;;;4.90;99.90;;;;;;2028654;29;20275;-66
2023/12/26 04:56:59;;;;;;;3.57;1.57;;;4.90;99.90;;;;;;2030554;29;20224;-66
2023/12/26 04:58:00;;;;;;;1.33;1.10;;;5.00;99.90;;;;;;2034767;29;20748;-66
2023/12/26 04:59:00;;;;;;;3.17;1.20;;;5.00;99.90;;;;;;2028877;29;20224;-66
2023/12/26 05:00:02;;;;;;;1.97;1.47;;;4.90;99.90;;;;;;2029108;29;20280;-66
2023/12/26 05:01:02;;;;;;;2.78;1.40;;;5.00;99.90;;;;;;2036275;29;20322;-66
2023/12/26 05:02:03;;;;;;;1.80;1.17;;;5.00;99.90;;;;;;2034401;29;20564;-66
2023/12/26 05:03:04;;;;;;;3.00;1.53;;;5.10;99.90;;;;;;2036019;29;20609;-66
2023/12/26 05:04:05;;;;;;;4.97;1.60;;;5.10;99.90;;;;;;2037790;29;20184;-66
2023/12/26 05:05:07;;;;;;;2.40;1.20;;;5.00;99.90;;;;;;2036485;29;20677;-66
2023/12/26 05:06:08;;;;;;;2.53;1.10;;;5.00;99.90;;;;;;2035812;28;20196;-66
2023/12/26 05:07:09;;;;;;;3.47;1.50;;;5.00;99.90;;;;;;2035138;29;20186;-65
2023/12/26 05:08:09;;;;;;;2.73;1.53;;;5.00;99.90;;;;;;2036500;29;20583;-67
2023/12/26 05:09:10;;;;;;;3.40;1.23;;;5.00;99.90;;;;;;2037627;29;20180;-67
2023/12/26 05:10:11;;;;;;;6.30;1.93;;;5.00;99.90;;;;;;2036582;29;20635;-66
2023/12/26 05:11:22;;;;;;;1.97;1.67;;;4.90;99.90;;;;;;2035450;29;20769;-66
2023/12/26 05:12:23;;;;;;;2.72;1.40;;;5.10;99.90;;;;;;2035438;29;20252;-66
2023/12/26 05:13:23;;;;;;;1.53;1.20;;;5.10;99.90;;;;;;2038330;28;20228;-66
2023/12/26 05:14:24;;;;;;;1.90;1.20;;;5.10;99.90;;;;;;2037323;28;20259;-66
2023/12/26 05:15:25;;;;;;;2.10;1.30;;;5.10;99.90;;;;;;2036357;28;20224;-66
2023/12/26 05:16:28;;;;;;;3.10;1.30;;;5.00;99.90;;;;;;2036056;28;20754;-66
2023/12/26 05:17:29;;;;;;;2.67;1.38;;;5.00;99.90;;;;;;2037883;29;20228;-66
2023/12/26 05:18:30;;;;;;;2.03;1.40;;;5.00;99.90;;;;;;2030241;29;20240;-66
2023/12/26 05:19:31;;;;;;;3.22;1.35;;;5.10;99.90;;;;;;2038337;29;20239;-66
2023/12/26 05:20:31;;;;;;;3.13;1.33;;;5.00;99.90;;;;;;2035818;29;20312;-67
2023/12/26 05:21:32;;;;;;;2.37;1.13;;;5.00;99.90;;;;;;2027149;29;20375;-66
2023/12/26 05:22:33;;;;;;;1.60;1.00;;;5.10;99.90;;;;;;2034857;29;20769;-67